Time;durP1;ratioP1;P1;durP2;ratioP2;P2;SDS_P1;SDS_P2;PMS_P1;PMS_P2;Temp;Humidity;BMP_temperature;BMP_pressure;BME280_temperature;BME280_humidity;BME280_pressure;Samples;Min_cycle;Max_cycle;Signal;HPM_P1;HPM_P2
2023/09/16 00:00:36;;;;;;;8.43;7.13;;;14.60;99.90;;;;;;4936544;29;20091;-83
2023/09/16 00:03:03;;;;;;;8.43;7.45;;;14.50;99.90;;;;;;4936468;29;20427;-83
2023/09/16 00:05:29;;;;;;;8.38;6.60;;;14.40;99.90;;;;;;4936893;29;20154;-83
2023/09/16 00:07:54;;;;;;;7.57;6.82;;;14.40;99.90;;;;;;4935418;29;20989;-83
2023/09/16 00:10:20;;;;;;;9.30;6.90;;;14.40;99.90;;;;;;4936714;29;20467;-83
2023/09/16 00:12:46;;;;;;;10.80;7.00;;;14.40;99.90;;;;;;4938153;29;20034;-83
2023/09/16 00:15:11;;;;;;;9.90;7.72;;;14.40;99.90;;;;;;4937566;29;20038;-83
2023/09/16 00:17:37;;;;;;;10.05;7.63;;;14.30;99.90;;;;;;4936920;28;20039;-84
2023/09/16 00:20:15;;;;;;;9.55;7.65;;;14.30;99.90;;;;;;4937396;29;20028;-83
2023/09/16 00:22:42;;;;;;;9.85;8.25;;;14.30;99.90;;;;;;4939765;29;20047;-83
2023/09/16 00:25:11;;;;;;;9.30;8.07;;;14.30;99.90;;;;;;4939729;29;20035;-83
2023/09/16 00:27:39;;;;;;;11.65;8.35;;;14.30;99.90;;;;;;4941323;29;20033;-83
2023/09/16 00:30:05;;;;;;;11.45;9.00;;;14.30;99.90;;;;;;4943061;29;20058;-82
2023/09/16 00:32:31;;;;;;;10.55;9.45;;;14.30;99.90;;;;;;4963993;28;20063;-82
2023/09/16 00:34:58;;;;;;;11.95;9.82;;;14.30;99.90;;;;;;4956986;28;20119;-82
2023/09/16 00:37:23;;;;;;;13.65;8.55;;;14.30;99.90;;;;;;4946030;29;20126;-82
2023/09/16 00:39:49;;;;;;;10.10;8.80;;;14.30;99.90;;;;;;4944478;29;20115;-82
2023/09/16 00:42:15;;;;;;;12.35;9.25;;;14.30;99.90;;;;;;4930463;29;20755;-83
2023/09/16 00:44:41;;;;;;;12.43;8.70;;;14.20;99.90;;;;;;4937003;29;20459;-83
2023/09/16 00:47:07;;;;;;;10.77;8.25;;;14.20;99.90;;;;;;4937324;29;20035;-83
2023/09/16 00:49:33;;;;;;;9.27;7.75;;;14.20;99.90;;;;;;4938204;29;20070;-82
2023/09/16 00:51:59;;;;;;;7.82;6.45;;;14.20;99.90;;;;;;4939046;29;20040;-83
2023/09/16 00:54:26;;;;;;;9.85;6.80;;;14.10;99.90;;;;;;4938906;29;20446;-83
2023/09/16 00:56:52;;;;;;;9.85;7.25;;;14.10;99.90;;;;;;4939490;29;20038;-83
2023/09/16 00:59:22;;;;;;;10.00;7.25;;;14.00;99.90;;;;;;4924515;29;20846;-83
2023/09/16 01:01:50;;;;;;;10.95;7.18;;;14.00;99.90;;;;;;4938638;29;20454;-83
2023/09/16 01:04:16;;;;;;;10.27;7.20;;;14.00;99.90;;;;;;4938194;29;20078;-83
2023/09/16 01:06:43;;;;;;;9.80;7.60;;;13.90;99.90;;;;;;4937992;29;20034;-83
2023/09/16 01:09:10;;;;;;;9.80;7.80;;;13.90;99.90;;;;;;4939293;29;20027;-82
2023/09/16 01:11:37;;;;;;;10.30;8.57;;;13.90;99.90;;;;;;4938353;29;20461;-83
2023/09/16 01:14:04;;;;;;;11.05;8.75;;;13.90;99.90;;;;;;4938058;29;20521;-83
2023/09/16 01:16:57;;;;;;;11.15;8.98;;;13.90;99.90;;;;;;4938680;29;20035;-83
2023/09/16 01:19:50;;;;;;;12.02;9.82;;;13.90;99.90;;;;;;4938868;29;20035;-82
2023/09/16 01:22:17;;;;;;;11.68;8.55;;;13.90;99.90;;;;;;4938684;29;20047;-82
2023/09/16 01:24:50;;;;;;;9.75;7.78;;;13.90;99.90;;;;;;4938463;29;20075;-82
2023/09/16 01:27:15;;;;;;;8.88;7.88;;;13.90;99.90;;;;;;4938723;29;20035;-82
2023/09/16 01:29:41;;;;;;;11.95;7.97;;;13.80;99.90;;;;;;4936022;29;20107;-83
2023/09/16 01:32:10;;;;;;;10.10;7.07;;;13.80;99.90;;;;;;4938298;29;20027;-82
2023/09/16 01:34:41;;;;;;;12.38;7.65;;;13.70;99.90;;;;;;4938146;29;20028;-82
2023/09/16 01:37:09;;;;;;;14.02;7.55;;;13.70;99.90;;;;;;4939672;29;20097;-83
2023/09/16 01:39:36;;;;;;;8.50;7.30;;;13.70;99.90;;;;;;4938636;29;21959;-81
2023/09/16 01:42:02;;;;;;;9.35;7.68;;;13.70;99.90;;;;;;4939322;29;20044;-83
2023/09/16 01:44:27;;;;;;;12.40;8.27;;;13.70;99.90;;;;;;4938622;29;20561;-82
2023/09/16 01:46:56;;;;;;;9.90;7.93;;;13.70;99.90;;;;;;4938290;29;20031;-82
2023/09/16 01:49:23;;;;;;;13.52;7.35;;;13.60;99.90;;;;;;4939054;29;20091;-82
2023/09/16 01:51:49;;;;;;;8.68;7.03;;;13.50;99.90;;;;;;4938474;29;20094;-83
2023/09/16 01:54:14;;;;;;;9.70;7.65;;;13.50;99.90;;;;;;4938960;29;20023;-83
2023/09/16 01:56:40;;;;;;;9.73;7.43;;;13.50;99.90;;;;;;4938308;29;20027;-83
2023/09/16 01:59:05;;;;;;;7.97;7.18;;;13.40;99.90;;;;;;4939184;29;20031;-83
2023/09/16 02:01:31;;;;;;;11.82;7.78;;;13.40;99.90;;;;;;4939095;29;20035;-82
2023/09/16 02:03:56;;;;;;;9.43;7.53;;;13.40;99.90;;;;;;4939055;29;20171;-82
2023/09/16 02:06:22;;;;;;;9.05;7.90;;;13.30;99.90;;;;;;4938538;29;20023;-82
2023/09/16 02:08:47;;;;;;;15.85;8.68;;;13.40;99.90;;;;;;4941277;29;20035;-82
2023/09/16 02:11:13;;;;;;;12.07;8.32;;;13.30;99.90;;;;;;4938677;29;20046;-82
2023/09/16 02:13:38;;;;;;;10.48;9.13;;;13.30;99.90;;;;;;4941172;29;20031;-82
2023/09/16 02:16:04;;;;;;;11.63;9.60;;;13.30;99.90;;;;;;4940409;29;20031;-82
2023/09/16 02:18:29;;;;;;;13.38;9.80;;;13.30;99.90;;;;;;4941460;29;20042;-82
2023/09/16 02:20:55;;;;;;;14.65;10.25;;;13.30;99.90;;;;;;4940820;29;20037;-82
2023/09/16 02:23:22;;;;;;;13.13;11.23;;;13.20;99.90;;;;;;4941983;29;20491;-82
2023/09/16 02:25:47;;;;;;;18.92;12.00;;;13.20;99.90;;;;;;4939984;29;20027;-83
2023/09/16 02:28:14;;;;;;;12.07;10.43;;;13.20;99.90;;;;;;4941094;29;20032;-82
2023/09/16 02:30:39;;;;;;;13.07;10.95;;;13.30;99.90;;;;;;4939302;29;20299;-83
2023/09/16 02:33:05;;;;;;;13.88;10.60;;;13.30;99.90;;;;;;4939519;29;20543;-83
2023/09/16 02:35:30;;;;;;;15.93;12.00;;;13.30;99.90;;;;;;4939945;29;21654;-82
2023/09/16 02:37:58;;;;;;;14.27;11.43;;;13.30;99.90;;;;;;4940756;29;20394;-82
2023/09/16 02:40:24;;;;;;;13.35;10.93;;;13.20;99.90;;;;;;4941772;29;20099;-83
2023/09/16 02:42:49;;;;;;;11.18;9.52;;;13.30;99.90;;;;;;4944877;29;20127;-82
2023/09/16 02:45:15;;;;;;;10.45;9.18;;;13.20;99.90;;;;;;4943832;29;20114;-82
2023/09/16 02:47:40;;;;;;;9.70;8.50;;;13.20;99.90;;;;;;4943667;29;20051;-82
2023/09/16 02:50:07;;;;;;;9.43;8.10;;;13.20;99.90;;;;;;4944875;29;20042;-82
2023/09/16 02:52:32;;;;;;;11.25;8.05;;;13.20;99.90;;;;;;4944778;29;20031;-82
2023/09/16 02:54:58;;;;;;;9.23;7.68;;;13.10;99.90;;;;;;4943681;29;20039;-82
2023/09/16 02:57:23;;;;;;;12.20;7.80;;;13.10;99.90;;;;;;4946212;29;20031;-82
2023/09/16 02:59:49;;;;;;;8.70;7.80;;;13.10;99.90;;;;;;4943436;29;20062;-82
2023/09/16 03:02:15;;;;;;;10.20;7.68;;;13.10;99.90;;;;;;4944248;29;20072;-82
2023/09/16 03:04:41;;;;;;;8.13;7.13;;;13.10;99.90;;;;;;4943562;29;21044;-82
2023/09/16 03:07:07;;;;;;;12.75;8.35;;;13.00;99.90;;;;;;4944457;29;20125;-82
2023/09/16 03:09:32;;;;;;;10.07;8.40;;;13.00;99.90;;;;;;4944960;29;20031;-82
2023/09/16 03:11:58;;;;;;;10.18;8.70;;;13.00;99.90;;;;;;4946052;29;20826;-82
2023/09/16 03:14:23;;;;;;;14.25;8.85;;;12.90;99.90;;;;;;4946416;29;20336;-82
2023/09/16 03:16:49;;;;;;;10.82;7.97;;;12.90;99.90;;;;;;4946398;29;20027;-83
2023/09/16 03:19:16;;;;;;;9.07;7.13;;;12.90;99.90;;;;;;4947261;29;20031;-82
2023/09/16 03:21:42;;;;;;;10.88;7.90;;;12.90;99.90;;;;;;4950056;29;20028;-82
2023/09/16 03:24:07;;;;;;;10.40;7.57;;;12.90;99.90;;;;;;4952129;29;20038;-81
2023/09/16 03:26:33;;;;;;;10.98;8.90;;;12.90;99.90;;;;;;4965036;28;20046;-82
2023/09/16 03:28:58;;;;;;;10.85;8.73;;;12.80;99.90;;;;;;4965021;28;20023;-81
2023/09/16 03:31:24;;;;;;;10.38;8.52;;;12.80;99.90;;;;;;4946274;28;20035;-83
2023/09/16 03:33:49;;;;;;;10.77;8.70;;;12.80;99.90;;;;;;4943509;29;20055;-83
2023/09/16 03:36:15;;;;;;;9.77;8.77;;;12.80;99.90;;;;;;4942327;29;20024;-82
2023/09/16 03:38:50;;;;;;;11.30;8.75;;;12.80;99.90;;;;;;4943585;29;20103;-82
2023/09/16 03:41:16;;;;;;;11.75;9.23;;;12.70;99.90;;;;;;4941660;29;20040;-81
2023/09/16 03:43:43;;;;;;;9.93;8.93;;;12.70;99.90;;;;;;4931829;29;20035;-82
2023/09/16 03:46:08;;;;;;;10.65;8.93;;;12.70;99.90;;;;;;4943287;29;20028;-82
2023/09/16 03:48:34;;;;;;;10.30;8.75;;;12.70;99.90;;;;;;4942877;29;20038;-82
2023/09/16 03:51:00;;;;;;;11.55;8.82;;;12.70;99.90;;;;;;4941014;29;20054;-82
2023/09/16 03:53:25;;;;;;;9.82;8.68;;;12.60;99.90;;;;;;4942371;29;20058;-82
2023/09/16 03:55:54;;;;;;;10.20;8.75;;;12.70;99.90;;;;;;4940280;29;20038;-82
2023/09/16 03:58:20;;;;;;;12.43;9.25;;;12.70;99.90;;;;;;4940567;29;20032;-82
2023/09/16 04:00:47;;;;;;;12.52;8.68;;;12.60;99.90;;;;;;4940533;29;20027;-83
2023/09/16 04:03:13;;;;;;;11.63;9.38;;;12.60;99.90;;;;;;4940037;29;20058;-82
2023/09/16 04:05:40;;;;;;;10.88;9.35;;;12.60;99.90;;;;;;4938841;29;20047;-83
2023/09/16 04:08:05;;;;;;;11.13;9.70;;;12.60;99.90;;;;;;4938339;29;20046;-82
2023/09/16 04:10:31;;;;;;;13.40;9.70;;;12.50;99.90;;;;;;4937038;29;20034;-81
2023/09/16 04:12:56;;;;;;;11.43;9.30;;;12.60;99.90;;;;;;4937857;29;20027;-82
2023/09/16 04:15:22;;;;;;;11.30;9.18;;;12.60;99.90;;;;;;4937199;29;20126;-82
2023/09/16 04:17:49;;;;;;;13.35;9.07;;;12.60;99.90;;;;;;4937501;29;20042;-82
2023/09/16 04:20:15;;;;;;;13.13;9.18;;;12.50;99.90;;;;;;4936769;29;20035;-82
2023/09/16 04:22:41;;;;;;;12.63;8.65;;;12.50;99.90;;;;;;4943941;29;20118;-82
2023/09/16 04:25:07;;;;;;;11.30;8.40;;;12.50;99.90;;;;;;4941416;29;20126;-82
2023/09/16 04:27:32;;;;;;;13.68;7.75;;;12.50;99.90;;;;;;4942749;29;21336;-82
2023/09/16 04:29:58;;;;;;;9.70;7.75;;;12.50;99.90;;;;;;4941542;29;20038;-83
2023/09/16 04:32:24;;;;;;;9.27;7.70;;;12.50;99.90;;;;;;4941754;29;20072;-82
2023/09/16 04:34:49;;;;;;;8.90;7.57;;;12.50;99.90;;;;;;4942353;29;20028;-81
2023/09/16 04:37:16;;;;;;;12.43;8.07;;;12.40;99.90;;;;;;4925244;29;20142;-82
2023/09/16 04:39:43;;;;;;;8.63;7.70;;;12.40;99.90;;;;;;4942789;29;20058;-82
2023/09/16 04:42:08;;;;;;;10.20;8.27;;;12.40;99.90;;;;;;4942074;29;20050;-82
2023/09/16 04:44:38;;;;;;;10.50;8.90;;;12.40;99.90;;;;;;4942278;29;20020;-82
2023/09/16 04:47:05;;;;;;;9.88;8.75;;;12.40;99.90;;;;;;4941738;29;20901;-82
2023/09/16 04:49:31;;;;;;;10.70;9.60;;;12.40;99.90;;;;;;4940956;29;20039;-82
2023/09/16 04:51:56;;;;;;;11.77;9.85;;;12.40;99.90;;;;;;4943456;29;20112;-82
2023/09/16 04:54:22;;;;;;;10.50;9.25;;;12.40;99.90;;;;;;4937821;29;20033;-82
2023/09/16 04:56:47;;;;;;;11.82;10.18;;;12.40;99.90;;;;;;4923050;29;20039;-82
2023/09/16 04:59:13;;;;;;;11.40;9.73;;;12.40;99.90;;;;;;4940425;29;20051;-81
2023/09/16 05:01:38;;;;;;;11.40;10.13;;;12.40;99.90;;;;;;4941978;29;20164;-82
2023/09/16 05:04:04;;;;;;;12.57;10.38;;;12.40;99.90;;;;;;4941646;28;20175;-82
2023/09/16 05:06:29;;;;;;;11.40;9.90;;;12.40;99.90;;;;;;4940858;29;20058;-82
2023/09/16 05:08:55;;;;;;;15.50;10.20;;;12.40;99.90;;;;;;4941891;29;20194;-82
2023/09/16 05:11:21;;;;;;;13.10;10.05;;;12.40;99.90;;;;;;4940490;29;20054;-81
2023/09/16 05:13:46;;;;;;;11.93;9.18;;;12.40;99.90;;;;;;4942006;29;20028;-82
2023/09/16 05:16:12;;;;;;;12.70;9.68;;;12.40;99.90;;;;;;4941518;29;20034;-82
2023/09/16 05:18:37;;;;;;;11.77;9.35;;;12.40;99.90;;;;;;4941883;29;20030;-82
2023/09/16 05:21:03;;;;;;;11.63;9.13;;;12.40;99.90;;;;;;4939920;29;20345;-82
2023/09/16 05:23:33;;;;;;;11.55;8.25;;;12.40;99.90;;;;;;4940810;29;20741;-82
2023/09/16 05:25:59;;;;;;;12.05;7.82;;;12.40;99.90;;;;;;4941057;29;20439;-82
2023/09/16 05:28:25;;;;;;;9.63;7.97;;;12.40;99.90;;;;;;4941011;29;20031;-82
2023/09/16 05:30:53;;;;;;;12.00;8.45;;;12.40;99.90;;;;;;4940459;29;20042;-82
2023/09/16 05:33:19;;;;;;;12.60;7.90;;;12.40;99.90;;;;;;4941023;29;20051;-82
2023/09/16 05:35:45;;;;;;;11.20;7.45;;;12.40;99.90;;;;;;4940627;29;20486;-82
2023/09/16 05:38:10;;;;;;;8.45;6.97;;;12.40;99.90;;;;;;4941127;29;20453;-82
2023/09/16 05:40:36;;;;;;;11.00;7.38;;;12.40;99.90;;;;;;4940009;29;20059;-82
2023/09/16 05:43:01;;;;;;;9.48;7.38;;;12.50;99.90;;;;;;4940025;29;20122;-82
2023/09/16 05:45:27;;;;;;;11.52;8.10;;;12.50;99.90;;;;;;4939047;29;20051;-82
2023/09/16 05:47:53;;;;;;;11.73;7.80;;;12.50;99.90;;;;;;4938836;29;20027;-82
2023/09/16 05:50:18;;;;;;;13.30;9.40;;;12.60;99.90;;;;;;4940256;29;20023;-82
2023/09/16 05:52:44;;;;;;;15.20;9.80;;;12.60;99.90;;;;;;4940552;29;20111;-82
2023/09/16 05:55:10;;;;;;;14.18;9.77;;;12.70;99.90;;;;;;4940311;29;20502;-82
2023/09/16 05:57:35;;;;;;;16.30;11.00;;;12.80;99.90;;;;;;4941677;29;20031;-82
2023/09/16 06:00:03;;;;;;;15.95;10.82;;;12.80;99.90;;;;;;4942678;29;20062;-81
2023/09/16 06:02:29;;;;;;;11.35;9.95;;;12.90;99.90;;;;;;4943749;29;20058;-81
2023/09/16 06:04:55;;;;;;;15.55;9.93;;;12.90;99.90;;;;;;4942192;29;20035;-83
2023/09/16 06:07:20;;;;;;;11.80;9.30;;;13.00;99.90;;;;;;4943136;29;20055;-82
2023/09/16 06:09:46;;;;;;;14.45;10.50;;;13.00;99.90;;;;;;4939580;29;20162;-82
2023/09/16 06:12:11;;;;;;;16.98;11.23;;;13.10;99.90;;;;;;4941927;29;20111;-83
2023/09/16 06:14:37;;;;;;;14.90;11.32;;;13.20;99.90;;;;;;4944835;28;20095;-82
2023/09/16 06:17:03;;;;;;;13.07;10.77;;;13.20;99.90;;;;;;4932368;29;21070;-82
2023/09/16 06:19:29;;;;;;;14.55;10.95;;;13.30;99.90;;;;;;4951771;28;20031;-81
2023/09/16 06:21:55;;;;;;;19.70;11.68;;;13.40;99.90;;;;;;4966100;28;20032;-81
2023/09/16 06:24:21;;;;;;;17.90;13.35;;;13.50;99.90;;;;;;4965820;28;20090;-81
2023/09/16 06:26:47;;;;;;;21.83;14.73;;;13.50;99.90;;;;;;4948012;29;20039;-82
2023/09/16 06:29:12;;;;;;;25.83;17.67;;;13.60;99.90;;;;;;4944275;29;20043;-83
2023/09/16 06:31:38;;;;;;;22.08;16.45;;;13.70;99.90;;;;;;4926356;29;20145;-82
2023/09/16 06:34:05;;;;;;;20.77;16.02;;;13.70;99.90;;;;;;4943529;29;20379;-83
2023/09/16 06:36:31;;;;;;;20.95;16.75;;;13.70;99.90;;;;;;4941984;29;20047;-83
2023/09/16 06:38:56;;;;;;;21.65;16.10;;;13.80;99.90;;;;;;4942201;29;20826;-83
2023/09/16 06:41:22;;;;;;;22.92;17.13;;;13.90;99.90;;;;;;4940249;29;20039;-82
2023/09/16 06:43:48;;;;;;;20.58;16.85;;;14.00;99.90;;;;;;4942150;28;20702;-82
2023/09/16 06:46:13;;;;;;;24.95;16.63;;;14.10;99.90;;;;;;4942237;29;20039;-82
2023/09/16 06:48:39;;;;;;;23.50;16.42;;;14.10;99.90;;;;;;4943719;29;20034;-82
2023/09/16 06:51:04;;;;;;;19.00;16.30;;;14.20;99.90;;;;;;4941974;29;20024;-82
2023/09/16 06:53:31;;;;;;;23.73;16.20;;;14.30;99.90;;;;;;4943248;29;20035;-82
2023/09/16 06:55:57;;;;;;;15.65;13.77;;;14.40;99.90;;;;;;4943062;29;20758;-82
2023/09/16 06:58:24;;;;;;;17.58;14.18;;;14.50;99.90;;;;;;4943381;29;20035;-82
2023/09/16 07:00:49;;;;;;;16.08;13.55;;;14.80;99.90;;;;;;4940443;29;20050;-83
2023/09/16 07:03:15;;;;;;;17.23;13.45;;;14.90;99.90;;;;;;4941875;29;20079;-82
2023/09/16 07:05:48;;;;;;;17.38;13.23;;;15.00;99.90;;;;;;4941113;29;20031;-83
2023/09/16 07:08:15;;;;;;;14.35;12.77;;;15.10;99.90;;;;;;4923584;29;20091;-83
2023/09/16 07:10:41;;;;;;;16.45;12.43;;;15.20;99.90;;;;;;4940319;29;20043;-82
2023/09/16 07:13:07;;;;;;;16.85;12.02;;;15.40;99.90;;;;;;4941346;29;20711;-82
2023/09/16 07:15:32;;;;;;;16.42;12.57;;;15.50;99.90;;;;;;4941709;29;20730;-82
2023/09/16 07:17:58;;;;;;;14.98;10.48;;;15.50;99.90;;;;;;4941589;29;20038;-83
2023/09/16 07:20:24;;;;;;;15.02;10.50;;;15.70;99.90;;;;;;4939136;29;20039;-82
2023/09/16 07:22:52;;;;;;;14.88;11.23;;;15.70;99.90;;;;;;4941128;29;20126;-82
2023/09/16 07:25:18;;;;;;;14.02;10.88;;;15.80;99.90;;;;;;4939968;29;20035;-82
2023/09/16 07:27:43;;;;;;;14.65;10.55;;;15.80;99.90;;;;;;4938370;28;20031;-82
2023/09/16 07:30:09;;;;;;;13.43;10.70;;;15.80;99.90;;;;;;4939154;29;20031;-82
2023/09/16 07:32:36;;;;;;;13.68;9.77;;;15.90;99.90;;;;;;4939892;29;20038;-82
2023/09/16 07:35:02;;;;;;;10.95;9.27;;;15.90;99.90;;;;;;4937884;29;20031;-83
2023/09/16 07:37:28;;;;;;;14.10;10.98;;;16.00;99.90;;;;;;4937206;29;20486;-83
2023/09/16 07:39:54;;;;;;;12.30;11.00;;;16.00;99.90;;;;;;4937762;29;20114;-83
2023/09/16 07:42:20;;;;;;;15.80;11.38;;;16.10;99.90;;;;;;4937710;29;21362;-83
2023/09/16 07:44:45;;;;;;;13.68;10.82;;;16.10;99.90;;;;;;4935928;29;20039;-83
2023/09/16 07:47:11;;;;;;;12.63;11.23;;;16.20;99.90;;;;;;4938326;29;20522;-83
2023/09/16 07:49:37;;;;;;;13.30;11.27;;;16.20;99.90;;;;;;4935505;29;20024;-83
2023/09/16 07:52:02;;;;;;;14.18;12.13;;;16.20;99.90;;;;;;4937456;29;20066;-83
2023/09/16 07:54:28;;;;;;;13.00;11.55;;;16.30;99.90;;;;;;4930773;29;20109;-83
2023/09/16 07:56:53;;;;;;;14.57;11.05;;;16.30;99.90;;;;;;4936593;29;20027;-83
2023/09/16 07:59:20;;;;;;;13.43;10.68;;;16.40;99.90;;;;;;4936079;29;20541;-83
2023/09/16 08:01:46;;;;;;;12.82;11.48;;;16.50;99.90;;;;;;4937290;29;20024;-83
2023/09/16 08:04:12;;;;;;;11.93;10.40;;;16.60;99.90;;;;;;4935107;29;20032;-83
2023/09/16 08:06:37;;;;;;;15.57;11.20;;;16.80;99.90;;;;;;4935234;29;20028;-83
2023/09/16 08:09:03;;;;;;;13.73;10.70;;;16.90;99.90;;;;;;4943100;29;20047;-82
2023/09/16 08:11:29;;;;;;;10.98;9.77;;;17.00;99.90;;;;;;4939599;29;20035;-82
2023/09/16 08:13:54;;;;;;;12.52;10.80;;;17.10;99.90;;;;;;4941460;29;20032;-83
2023/09/16 08:16:20;;;;;;;12.40;11.00;;;17.20;99.90;;;;;;4937826;29;20031;-82
2023/09/16 08:18:46;;;;;;;13.05;10.18;;;17.30;99.90;;;;;;4938585;29;20098;-83
2023/09/16 08:21:11;;;;;;;11.00;9.68;;;17.50;99.90;;;;;;4937709;29;20035;-84
2023/09/16 08:23:37;;;;;;;12.18;10.15;;;17.60;99.90;;;;;;4935554;29;20027;-83
2023/09/16 08:26:03;;;;;;;11.90;10.30;;;17.80;99.90;;;;;;4936747;29;20063;-83
2023/09/16 08:28:28;;;;;;;11.20;9.98;;;17.90;99.90;;;;;;4936462;29;20028;-84
2023/09/16 08:30:54;;;;;;;13.18;10.32;;;18.00;99.90;;;;;;4934391;29;20035;-84
2023/09/16 08:33:20;;;;;;;11.85;10.20;;;18.20;99.90;;;;;;4935688;29;20110;-84
2023/09/16 08:35:45;;;;;;;12.57;9.98;;;18.30;99.90;;;;;;4937255;29;20046;-84
2023/09/16 08:38:11;;;;;;;11.88;10.68;;;18.40;99.90;;;;;;4935405;28;20409;-84
2023/09/16 08:40:36;;;;;;;13.20;10.88;;;18.40;99.90;;;;;;4936137;29;21478;-83
2023/09/16 08:43:27;;;;;;;14.05;10.15;;;18.50;99.90;;;;;;4935580;29;20118;-84
2023/09/16 08:46:01;;;;;;;11.57;9.98;;;18.60;99.90;;;;;;4936980;29;20114;-83
2023/09/16 08:48:30;;;;;;;10.80;9.23;;;18.80;99.90;;;;;;4934807;29;20114;-83
2023/09/16 08:50:57;;;;;;;10.82;9.05;;;18.90;99.90;;;;;;4935458;29;20091;-83
2023/09/16 08:53:27;;;;;;;9.73;8.32;;;19.00;99.90;;;;;;4936020;29;20039;-84
2023/09/16 08:55:55;;;;;;;13.05;9.32;;;19.20;99.90;;;;;;4934713;29;20035;-83
2023/09/16 08:58:21;;;;;;;11.48;9.27;;;19.40;99.90;;;;;;4922900;29;20089;-84
2023/09/16 09:00:48;;;;;;;10.52;9.25;;;19.60;99.90;;;;;;4935125;29;20058;-83
2023/09/16 09:03:15;;;;;;;9.45;8.15;;;19.70;99.90;;;;;;4934791;29;20039;-83
2023/09/16 09:05:44;;;;;;;10.75;8.60;;;20.00;99.90;;;;;;4933740;28;20610;-83
2023/09/16 09:08:11;;;;;;;9.10;8.15;;;20.20;99.90;;;;;;4923545;29;20063;-84
2023/09/16 09:10:40;;;;;;;12.55;8.20;;;20.40;99.90;;;;;;4933233;29;20120;-84
2023/09/16 09:13:13;;;;;;;11.63;9.13;;;20.50;99.90;;;;;;4935943;29;20027;-84
2023/09/16 09:15:40;;;;;;;9.88;7.60;;;20.70;99.90;;;;;;4939228;29;20027;-83
2023/09/16 09:18:07;;;;;;;9.32;7.38;;;20.90;99.90;;;;;;4951560;28;20027;-83
2023/09/16 09:20:32;;;;;;;7.75;7.00;;;21.10;99.90;;;;;;4962216;28;20208;-82
2023/09/16 09:22:59;;;;;;;8.95;7.50;;;21.40;99.90;;;;;;4960216;28;20039;-84
2023/09/16 09:25:26;;;;;;;9.35;7.25;;;21.50;99.90;;;;;;4934495;29;20112;-84
2023/09/16 09:27:54;;;;;;;9.23;7.68;;;21.70;99.90;;;;;;4933860;29;20031;-82
2023/09/16 09:30:26;;;;;;;10.05;7.43;;;22.00;99.90;;;;;;4933953;29;20027;-82
2023/09/16 09:32:55;;;;;;;9.60;7.50;;;22.00;99.90;;;;;;4934607;29;20035;-82
2023/09/16 09:35:22;;;;;;;11.95;7.40;;;22.10;99.90;;;;;;4934001;29;20119;-82
2023/09/16 09:37:48;;;;;;;7.70;6.53;;;22.20;99.90;;;;;;4933865;29;20034;-81
2023/09/16 09:40:15;;;;;;;8.60;7.50;;;22.40;99.90;;;;;;4933812;29;20035;-81
2023/09/16 09:42:45;;;;;;;7.22;6.50;;;22.50;99.90;;;;;;4935090;29;20028;-82
2023/09/16 09:45:11;;;;;;;6.75;6.05;;;22.60;99.90;;;;;;4925873;29;20027;-82
2023/09/16 09:47:41;;;;;;;7.45;6.25;;;22.90;99.90;;;;;;4935389;29;20623;-82
2023/09/16 09:50:10;;;;;;;6.70;6.00;;;23.00;99.90;;;;;;4935806;28;20036;-82
2023/09/16 09:52:36;;;;;;;7.78;6.68;;;23.20;99.90;;;;;;4937652;29;20031;-82
2023/09/16 09:55:02;;;;;;;7.70;6.63;;;23.20;99.90;;;;;;4938207;29;20795;-81
2023/09/16 09:57:27;;;;;;;7.40;6.05;;;23.10;99.90;;;;;;4925507;29;20107;-82
2023/09/16 09:59:54;;;;;;;6.68;6.00;;;23.20;99.90;;;;;;4936921;29;20478;-82
2023/09/16 10:02:27;;;;;;;10.45;6.05;;;23.30;99.90;;;;;;4919400;29;20082;-82
2023/09/16 10:05:02;;;;;;;9.27;6.85;;;23.50;99.90;;;;;;4937475;29;20070;-82
2023/09/16 10:07:29;;;;;;;7.35;6.50;;;23.70;99.90;;;;;;4937718;29;20035;-82
2023/09/16 10:09:55;;;;;;;8.07;6.45;;;24.00;99.90;;;;;;4940795;29;20035;-82
2023/09/16 10:12:22;;;;;;;6.57;5.65;;;24.00;99.90;;;;;;4941427;29;20495;-82
2023/09/16 10:14:48;;;;;;;9.15;6.20;;;24.00;99.90;;;;;;4936121;29;20174;-82
2023/09/16 10:17:15;;;;;;;7.22;6.18;;;24.20;99.90;;;;;;4938166;29;20039;-82
2023/09/16 10:19:42;;;;;;;8.18;5.82;;;24.10;99.90;;;;;;4937104;29;20621;-82
2023/09/16 10:22:08;;;;;;;8.02;6.85;;;24.20;99.90;;;;;;4938154;29;20036;-82
2023/09/16 10:24:34;;;;;;;7.90;6.20;;;24.20;99.90;;;;;;4936634;29;20031;-82
2023/09/16 10:27:05;;;;;;;11.00;6.15;;;24.10;99.90;;;;;;4938460;29;20119;-82
2023/09/16 10:29:31;;;;;;;7.65;6.70;;;24.30;99.90;;;;;;4936783;29;20202;-83
2023/09/16 10:31:58;;;;;;;8.57;5.97;;;24.50;99.90;;;;;;4937056;29;20031;-82
2023/09/16 10:34:24;;;;;;;7.45;5.97;;;24.70;99.90;;;;;;4937388;29;20126;-83
2023/09/16 10:36:49;;;;;;;6.47;5.88;;;24.90;99.90;;;;;;4937279;29;20082;-82
2023/09/16 10:39:17;;;;;;;11.68;5.43;;;25.10;99.90;;;;;;4937790;29;20394;-82
2023/09/16 10:41:45;;;;;;;6.22;5.63;;;25.40;99.90;;;;;;4938227;29;20508;-82
2023/09/16 10:44:12;;;;;;;6.70;6.00;;;25.30;99.90;;;;;;4937412;29;20055;-82
2023/09/16 10:46:38;;;;;;;8.35;6.57;;;25.30;99.90;;;;;;4937510;29;20028;-82
2023/09/16 10:49:04;;;;;;;6.78;5.38;;;25.30;99.90;;;;;;4937967;29;20442;-82
2023/09/16 10:51:39;;;;;;;7.53;5.78;;;25.20;99.90;;;;;;4920200;29;20030;-83
2023/09/16 10:54:14;;;;;;;6.57;5.22;;;25.40;99.90;;;;;;4937574;29;20019;-82
2023/09/16 10:56:44;;;;;;;6.68;5.50;;;25.40;99.90;;;;;;4937231;29;20106;-83
2023/09/16 10:59:13;;;;;;;7.32;5.68;;;25.40;99.90;;;;;;4937231;29;20031;-82
2023/09/16 11:01:47;;;;;;;7.20;5.68;;;25.50;99.90;;;;;;4936431;28;20027;-83
2023/09/16 11:04:18;;;;;;;9.52;6.47;;;25.60;99.90;;;;;;4937398;29;20040;-82
2023/09/16 11:06:48;;;;;;;6.45;5.70;;;25.60;99.90;;;;;;4936267;29;20465;-83
2023/09/16 11:09:15;;;;;;;6.95;5.40;;;25.70;99.90;;;;;;4936781;29;20054;-82
2023/09/16 11:11:41;;;;;;;7.50;5.93;;;26.00;99.90;;;;;;4937477;29;20897;-82
2023/09/16 11:14:08;;;;;;;7.28;5.85;;;26.00;99.90;;;;;;4936809;29;20840;-83
2023/09/16 11:16:48;;;;;;;6.80;5.88;;;26.10;99.90;;;;;;4936061;29;20039;-83
2023/09/16 11:19:14;;;;;;;5.47;4.90;;;26.30;99.90;;;;;;4936502;29;20027;-83
2023/09/16 11:21:41;;;;;;;5.40;4.57;;;26.40;99.90;;;;;;4937182;29;20038;-83
2023/09/16 11:24:07;;;;;;;5.55;4.90;;;26.70;99.90;;;;;;4936943;29;20070;-83
2023/09/16 11:26:37;;;;;;;5.63;4.38;;;26.90;99.90;;;;;;4937101;29;20841;-83
2023/09/16 11:29:17;;;;;;;7.07;5.47;;;26.90;99.90;;;;;;4937833;29;20501;-83
2023/09/16 11:31:43;;;;;;;7.20;5.32;;;26.90;99.90;;;;;;4937608;29;20055;-82
2023/09/16 11:34:11;;;;;;;6.78;5.25;;;26.80;99.90;;;;;;4937112;29;20147;-82
2023/09/16 11:36:42;;;;;;;6.55;5.10;;;26.80;99.90;;;;;;4936050;29;20099;-83
2023/09/16 11:39:09;;;;;;;5.85;4.82;;;26.70;99.90;;;;;;4935586;29;20142;-82
2023/09/16 11:41:35;;;;;;;5.45;4.80;;;26.70;99.90;;;;;;4935192;29;20080;-83
2023/09/16 11:44:02;;;;;;;6.60;5.60;;;26.70;99.90;;;;;;4924458;29;20020;-83
2023/09/16 11:46:29;;;;;;;9.38;4.93;;;26.70;99.90;;;;;;4936122;29;20044;-83
2023/09/16 11:48:56;;;;;;;5.00;4.00;;;26.90;99.90;;;;;;4937424;29;20086;-83
2023/09/16 11:51:24;;;;;;;8.10;4.43;;;27.00;99.90;;;;;;4936013;29;20035;-83
2023/09/16 11:53:51;;;;;;;4.78;4.28;;;27.10;99.90;;;;;;4936970;29;20043;-83
2023/09/16 11:56:18;;;;;;;4.70;4.10;;;27.10;99.90;;;;;;4946953;29;20016;-83
2023/09/16 11:58:45;;;;;;;5.20;4.35;;;27.30;99.90;;;;;;4941236;29;20043;-83
2023/09/16 12:01:12;;;;;;;5.03;4.20;;;27.40;99.90;;;;;;4943284;29;20027;-82
2023/09/16 12:03:39;;;;;;;4.10;3.33;;;27.40;99.90;;;;;;4937594;29;20071;-83
2023/09/16 12:06:04;;;;;;;5.32;3.83;;;27.50;99.90;;;;;;4935088;29;20035;-83
2023/09/16 12:08:31;;;;;;;5.03;3.65;;;27.50;99.90;;;;;;4937144;29;20030;-83
2023/09/16 12:10:57;;;;;;;4.38;3.88;;;27.60;99.90;;;;;;4936444;29;20498;-83
2023/09/16 12:13:30;;;;;;;4.88;4.00;;;27.80;99.90;;;;;;4941527;28;20035;-83
2023/09/16 12:15:56;;;;;;;5.13;4.20;;;27.70;99.90;;;;;;4945315;29;20114;-83
2023/09/16 12:18:21;;;;;;;6.95;4.68;;;27.70;99.90;;;;;;4966849;28;20019;-82
2023/09/16 12:20:47;;;;;;;6.05;4.50;;;27.70;99.90;;;;;;4965993;28;20027;-82
2023/09/16 12:23:14;;;;;;;8.13;4.32;;;27.60;99.90;;;;;;4949419;28;20906;-83
2023/09/16 12:25:41;;;;;;;4.28;3.88;;;27.70;99.90;;;;;;4936837;29;20072;-83
2023/09/16 12:28:08;;;;;;;4.22;3.40;;;27.70;99.90;;;;;;4935342;29;20790;-82
2023/09/16 12:30:41;;;;;;;4.88;4.05;;;27.90;99.90;;;;;;4933561;29;20748;-82
2023/09/16 12:33:06;;;;;;;6.70;3.92;;;28.00;99.90;;;;;;4934581;29;20074;-83
2023/09/16 12:35:37;;;;;;;6.55;3.92;;;27.90;99.90;;;;;;4935613;29;20667;-83